createdAt,value
2022-09-14T00:02:21.777Z,27.02
2022-09-14T00:04:48.990Z,25.92
2022-09-14T00:07:16.081Z,23.15
2022-09-14T00:09:43.834Z,25.80
2022-09-14T00:12:11.301Z,25.15
2022-09-14T00:14:40.429Z,24.20
2022-09-14T00:17:07.605Z,26.73
2022-09-14T00:19:34.809Z,22.23
2022-09-14T00:22:02.009Z,20.98
2022-09-14T00:24:34.867Z,19.95
2022-09-14T00:27:02.747Z,24.00
2022-09-14T00:29:30.527Z,27.35
2022-09-14T00:31:57.707Z,25.98
2022-09-14T00:34:24.919Z,30.35
2022-09-14T00:36:52.590Z,36.13
2022-09-14T00:39:21.101Z,31.65
2022-09-14T00:41:51.613Z,29.13
2022-09-14T00:44:18.667Z,37.45
2022-09-14T00:46:50.090Z,29.15
2022-09-14T00:49:26.006Z,26.95
2022-09-14T00:51:56.596Z,28.95
2022-09-14T00:54:23.746Z,24.58
2022-09-14T00:56:51.146Z,23.23
2022-09-14T00:59:19.801Z,27.63
2022-09-14T01:01:47.417Z,28.48
2022-09-14T01:04:14.743Z,26.38
2022-09-14T01:06:47.707Z,27.98
2022-09-14T01:09:30.218Z,27.92
2022-09-14T01:12:17.343Z,27.13
2022-09-14T01:15:02.730Z,29.92
2022-09-14T01:17:35.724Z,34.95
2022-09-14T01:20:20.827Z,26.70
2022-09-14T01:22:47.874Z,35.00
2022-09-14T01:25:22.449Z,38.13
2022-09-14T01:27:51.466Z,32.80
2022-09-14T01:30:20.991Z,36.13
2022-09-14T01:32:54.263Z,32.63
2022-09-14T01:35:21.354Z,37.05
2022-09-14T01:37:51.431Z,33.13
2022-09-14T01:40:29.084Z,29.98
2022-09-14T01:42:59.127Z,29.85
2022-09-14T01:45:27.998Z,27.67
2022-09-14T01:47:56.792Z,34.65
2022-09-14T01:50:26.638Z,32.65
2022-09-14T01:52:59.247Z,28.48
2022-09-14T01:58:02.628Z,30.73
2022-09-14T02:00:30.741Z,33.80
2022-09-14T02:03:21.078Z,30.58
2022-09-14T02:05:56.875Z,29.00
2022-09-14T02:08:26.977Z,28.15
2022-09-14T02:10:54.123Z,28.30
2022-09-14T02:13:21.611Z,30.67
2022-09-14T02:15:48.781Z,31.10
2022-09-14T02:18:16.031Z,28.95
2022-09-14T02:20:49.252Z,31.17
2022-09-14T02:23:16.721Z,31.90
2022-09-14T02:25:44.153Z,44.38
2022-09-14T02:28:11.493Z,39.47
2022-09-14T02:30:47.137Z,39.17
2022-09-14T02:33:24.860Z,31.98
2022-09-14T02:35:54.707Z,30.10
2022-09-14T02:38:32.535Z,33.17
2022-09-14T02:41:05.930Z,38.95
2022-09-14T02:43:33.035Z,32.80
2022-09-14T02:46:09.247Z,33.42
2022-09-14T02:48:48.652Z,33.47
2022-09-14T02:51:34.580Z,30.20
2022-09-14T02:54:04.735Z,30.70
2022-09-14T02:56:32.423Z,26.02
2022-09-14T02:58:59.533Z,32.15
2022-09-14T03:01:27.939Z,37.80
2022-09-14T03:03:55.385Z,33.15
2022-09-14T03:06:22.933Z,26.48
2022-09-14T03:08:50.425Z,34.67
2022-09-14T03:11:17.644Z,33.97
2022-09-14T03:13:44.742Z,30.98
2022-09-14T03:16:13.016Z,37.70
2022-09-14T03:18:40.453Z,32.33
2022-09-14T03:21:09.124Z,36.47
2022-09-14T03:23:39.801Z,39.15
2022-09-14T03:26:08.116Z,39.38
2022-09-14T03:28:35.312Z,43.42
2022-09-14T03:31:02.799Z,41.72
2022-09-14T03:33:29.931Z,51.75
2022-09-14T03:35:57.355Z,43.05
2022-09-14T03:38:26.859Z,46.90
2022-09-14T03:40:54.115Z,50.75
2022-09-14T03:43:21.707Z,43.88
2022-09-14T03:45:48.821Z,44.60
2022-09-14T03:48:16.011Z,44.00
2022-09-14T03:50:43.107Z,51.58
2022-09-14T03:53:10.235Z,45.78
2022-09-14T03:55:37.355Z,54.67
2022-09-14T03:58:04.461Z,56.97
2022-09-14T04:00:32.234Z,44.05
2022-09-14T04:03:00.668Z,45.50
2022-09-14T04:05:27.861Z,43.08
2022-09-14T04:07:54.927Z,58.78
2022-09-14T04:10:22.025Z,49.58
2022-09-14T04:12:49.164Z,49.03
2022-09-14T04:15:16.433Z,37.95
2022-09-14T04:17:43.748Z,38.90
2022-09-14T04:20:11.036Z,41.67
2022-09-14T04:22:38.215Z,40.20
2022-09-14T04:25:05.633Z,38.67
2022-09-14T04:27:32.887Z,50.03
2022-09-14T04:30:00.103Z,45.15
2022-09-14T04:32:29.730Z,37.03
2022-09-14T04:35:00.894Z,42.25
2022-09-14T04:37:31.078Z,49.55
2022-09-14T04:39:58.457Z,52.30
2022-09-14T04:42:25.689Z,41.85
2022-09-14T04:44:52.860Z,37.22
2022-09-14T04:47:20.034Z,39.10
2022-09-14T04:49:47.180Z,45.53
2022-09-14T04:52:14.368Z,41.53
2022-09-14T04:54:41.512Z,50.05
2022-09-14T04:57:08.806Z,48.78
2022-09-14T04:59:35.955Z,52.78
2022-09-14T05:02:03.191Z,54.85
2022-09-14T05:04:30.407Z,53.08
2022-09-14T05:06:57.603Z,61.70
2022-09-14T05:09:24.684Z,38.53
2022-09-14T05:11:52.833Z,41.00
2022-09-14T05:14:20.005Z,45.92
2022-09-14T05:16:48.024Z,45.33
2022-09-14T05:19:17.538Z,41.10
2022-09-14T05:21:45.097Z,39.35
2022-09-14T05:24:14.872Z,37.75
2022-09-14T05:26:43.182Z,39.22
2022-09-14T05:29:15.805Z,43.22
2022-09-14T05:34:10.883Z,39.70
2022-09-14T05:36:38.345Z,51.42
2022-09-14T05:39:06.002Z,51.20
2022-09-14T05:41:33.244Z,43.95
2022-09-14T05:44:00.683Z,58.58
2022-09-14T05:46:28.304Z,50.58
2022-09-14T05:48:55.503Z,47.95
2022-09-14T05:51:23.709Z,60.15
2022-09-14T05:53:51.655Z,59.15
2022-09-14T05:56:19.341Z,57.08
2022-09-14T05:58:46.920Z,51.63
2022-09-14T06:01:14.046Z,49.60
2022-09-14T06:03:41.550Z,45.10
2022-09-14T06:06:09.690Z,51.60
2022-09-14T06:08:37.354Z,42.53
2022-09-14T06:11:05.858Z,39.58
2022-09-14T06:13:33.399Z,46.88
2022-09-14T06:16:04.498Z,56.53
2022-09-14T06:18:35.008Z,44.17
2022-09-14T06:21:03.012Z,45.15
2022-09-14T06:23:30.832Z,44.10
2022-09-14T06:25:58.532Z,46.55
2022-09-14T06:28:26.185Z,43.50
2022-09-14T06:30:53.414Z,42.10
2022-09-14T06:33:20.929Z,43.88
2022-09-14T06:35:58.181Z,45.72
2022-09-14T06:38:25.812Z,43.83
2022-09-14T06:40:59.918Z,45.90
2022-09-14T06:43:28.319Z,40.70
2022-09-14T06:45:59.537Z,34.25
2022-09-14T06:48:27.586Z,39.50
2022-09-14T06:50:54.690Z,32.35
2022-09-14T06:53:21.819Z,40.00
2022-09-14T06:55:48.911Z,38.05
2022-09-14T06:58:16.130Z,42.00
2022-09-14T07:00:43.241Z,34.83
2022-09-14T07:03:10.441Z,29.08
2022-09-14T07:05:37.612Z,38.08
2022-09-14T07:08:07.041Z,34.30
2022-09-14T07:13:04.357Z,48.45
2022-09-14T07:15:31.479Z,31.02
2022-09-14T07:17:58.925Z,32.58
2022-09-14T07:20:26.116Z,36.63
2022-09-14T07:22:53.202Z,35.20
2022-09-14T07:25:20.331Z,34.47
2022-09-14T07:27:47.453Z,30.27
2022-09-14T07:30:14.577Z,32.47
2022-09-14T07:32:41.636Z,29.33
2022-09-14T07:35:08.967Z,34.63
2022-09-14T07:37:36.015Z,29.92
2022-09-14T07:40:03.243Z,24.73
2022-09-14T07:42:31.854Z,26.73
2022-09-14T07:44:59.032Z,27.75
2022-09-14T07:47:26.112Z,25.80
2022-09-14T07:49:53.251Z,28.02
2022-09-14T07:52:20.322Z,27.25
2022-09-14T07:54:47.411Z,34.38
2022-09-14T07:57:14.782Z,30.25
2022-09-14T07:59:41.876Z,26.00
2022-09-14T08:02:09.583Z,24.27
2022-09-14T08:04:38.537Z,21.40
2022-09-14T08:07:06.407Z,24.80
2022-09-14T08:09:33.993Z,19.10
2022-09-14T08:12:01.118Z,17.08
2022-09-14T08:14:28.323Z,16.00
2022-09-14T08:16:55.561Z,16.95
2022-09-14T08:19:22.761Z,12.15
2022-09-14T08:21:49.887Z,15.50
2022-09-14T08:24:18.084Z,13.65
2022-09-14T08:26:45.460Z,19.05
2022-09-14T08:29:13.422Z,15.73
2022-09-14T08:31:41.033Z,14.35
2022-09-14T08:34:08.639Z,22.00
2022-09-14T08:36:36.988Z,13.48
2022-09-14T08:39:04.771Z,14.45
2022-09-14T08:41:31.882Z,17.20
2022-09-14T08:44:05.572Z,16.15
2022-09-14T08:46:35.373Z,17.58
2022-09-14T08:49:04.504Z,13.38
2022-09-14T08:51:31.776Z,17.40
2022-09-14T08:54:01.890Z,15.57
2022-09-14T08:56:37.043Z,11.57
2022-09-14T08:59:19.400Z,16.98
2022-09-14T09:01:52.419Z,14.90
2022-09-14T09:04:25.516Z,15.25
2022-09-14T09:07:06.886Z,16.00
2022-09-14T09:09:45.342Z,18.63
2022-09-14T09:12:14.138Z,15.82
2022-09-14T09:14:43.991Z,16.25
2022-09-14T09:17:14.252Z,18.77
2022-09-14T09:19:50.667Z,19.38
2022-09-14T09:22:19.685Z,18.85
2022-09-14T09:24:49.859Z,22.05
2022-09-14T09:27:17.099Z,26.05
2022-09-14T09:29:44.434Z,20.77
2022-09-14T09:32:32.315Z,17.10
2022-09-14T09:35:01.177Z,18.98
2022-09-14T09:37:30.563Z,15.07
2022-09-14T09:39:57.700Z,16.20
2022-09-14T09:42:26.150Z,15.00
2022-09-14T09:45:02.536Z,14.38
2022-09-14T09:47:30.664Z,17.52
2022-09-14T09:49:59.654Z,17.45
2022-09-14T09:52:26.851Z,18.45
2022-09-14T09:54:55.375Z,17.25
2022-09-14T09:57:33.393Z,14.80
2022-09-14T10:00:10.082Z,14.63
2022-09-14T10:02:37.265Z,11.38
2022-09-14T10:05:04.568Z,14.35
2022-09-14T10:07:33.077Z,11.40
2022-09-14T10:10:02.098Z,12.88
2022-09-14T10:12:30.049Z,10.10
2022-09-14T10:15:25.704Z,11.50
2022-09-14T10:17:55.832Z,13.25
2022-09-14T10:20:24.054Z,8.48
2022-09-14T10:22:51.239Z,11.38
2022-09-14T10:25:18.332Z,11.15
2022-09-14T10:27:48.560Z,10.65
2022-09-14T10:30:19.891Z,8.75
2022-09-14T10:32:50.197Z,10.18
2022-09-14T10:35:17.479Z,11.30
2022-09-14T10:37:51.041Z,13.55
2022-09-14T10:40:23.480Z,7.88
2022-09-14T10:45:29.637Z,9.52
2022-09-14T10:47:56.907Z,9.95
2022-09-14T10:50:42.497Z,11.07
2022-09-14T10:53:21.357Z,9.13
2022-09-14T10:56:01.722Z,11.60
2022-09-14T10:58:51.911Z,7.22
2022-09-14T11:01:22.192Z,10.48
2022-09-14T11:03:49.357Z,10.57
2022-09-14T11:06:22.670Z,10.65
2022-09-14T11:08:55.763Z,11.50
2022-09-14T11:11:38.283Z,11.32
2022-09-14T11:14:05.408Z,8.50
2022-09-14T11:16:47.874Z,11.27
2022-09-14T11:19:14.913Z,8.23
2022-09-14T11:21:45.054Z,10.27
2022-09-14T11:24:18.672Z,7.75
2022-09-14T11:26:59.627Z,6.60
2022-09-14T11:29:34.644Z,7.32
2022-09-14T11:32:21.054Z,5.60
2022-09-14T11:34:54.816Z,6.38
2022-09-14T11:37:40.234Z,5.63
2022-09-14T11:40:33.117Z,7.07
2022-09-14T11:43:11.998Z,6.95
2022-09-14T11:46:05.332Z,7.18
2022-09-14T11:48:43.140Z,6.30
2022-09-14T11:51:22.775Z,9.45
2022-09-14T11:53:50.754Z,7.20
2022-09-14T11:56:26.860Z,4.75
2022-09-14T11:58:59.600Z,7.40
2022-09-14T12:01:39.144Z,8.45
2022-09-14T12:04:09.718Z,6.22
2022-09-14T12:06:36.445Z,6.20
2022-09-14T12:09:20.923Z,6.38
2022-09-14T12:11:55.074Z,6.13
2022-09-14T12:14:24.444Z,5.90
2022-09-14T12:17:38.939Z,9.98
2022-09-14T12:20:29.835Z,9.77
2022-09-14T12:23:12.789Z,8.43
2022-09-14T12:25:52.623Z,7.20
2022-09-14T12:28:40.189Z,10.90
2022-09-14T12:31:11.475Z,9.13
2022-09-14T12:33:38.111Z,9.32
2022-09-14T12:36:07.577Z,9.75
2022-09-14T12:38:37.307Z,10.55
2022-09-14T12:41:16.012Z,8.95
2022-09-14T12:43:42.745Z,11.40
2022-09-14T12:46:38.407Z,8.07
2022-09-14T12:49:38.102Z,4.80
2022-09-14T12:52:18.976Z,6.07
2022-09-14T12:54:54.116Z,7.20
2022-09-14T12:57:39.526Z,6.72
2022-09-14T13:00:16.781Z,5.72
2022-09-14T13:03:10.694Z,7.05
2022-09-14T13:05:37.465Z,4.47
2022-09-14T13:08:10.789Z,6.63
2022-09-14T13:10:44.586Z,5.50
2022-09-14T13:13:22.000Z,4.65
2022-09-14T13:15:57.756Z,6.55
2022-09-14T13:18:29.428Z,5.18
2022-09-14T13:20:59.081Z,7.03
2022-09-14T13:23:41.931Z,6.43
2022-09-14T13:26:18.583Z,7.95
2022-09-14T13:28:47.526Z,5.03
2022-09-14T13:31:18.718Z,6.30
2022-09-14T13:33:49.349Z,9.90
2022-09-14T13:36:26.544Z,6.25
2022-09-14T13:38:53.968Z,5.38
2022-09-14T13:41:22.951Z,7.25
2022-09-14T13:43:54.080Z,5.72
2022-09-14T13:46:22.995Z,7.13
2022-09-14T13:48:50.936Z,6.15
2022-09-14T13:51:26.571Z,4.78
2022-09-14T13:53:58.363Z,6.00
2022-09-14T13:56:30.836Z,4.93
2022-09-14T13:59:12.439Z,5.00
2022-09-14T14:02:00.692Z,4.43
2022-09-14T14:04:35.408Z,5.40
2022-09-14T14:07:02.078Z,8.45
2022-09-14T14:09:42.640Z,6.82
2022-09-14T14:12:11.506Z,5.70
2022-09-14T14:14:38.562Z,6.72
2022-09-14T14:17:29.466Z,5.75
2022-09-14T14:19:59.043Z,5.80
2022-09-14T14:22:31.943Z,6.13
2022-09-14T14:25:13.274Z,4.47
2022-09-14T14:27:46.266Z,2.40
2022-09-14T14:30:19.495Z,1.65
2022-09-14T14:32:53.535Z,4.15
2022-09-14T14:35:31.236Z,3.30
2022-09-14T14:37:58.548Z,5.07
2022-09-14T14:40:27.420Z,4.72
2022-09-14T14:42:55.193Z,5.32
2022-09-14T14:45:26.164Z,5.78
2022-09-14T14:47:54.686Z,3.45
2022-09-14T14:50:24.105Z,6.35
2022-09-14T14:52:51.743Z,4.03
2022-09-14T14:55:21.012Z,3.45
2022-09-14T14:57:49.106Z,5.53
2022-09-14T15:00:21.730Z,5.90
2022-09-14T15:05:16.067Z,3.92
2022-09-14T15:07:43.295Z,2.72
2022-09-14T15:10:13.885Z,4.90
2022-09-14T15:12:40.560Z,4.07
2022-09-14T15:15:15.300Z,2.58
2022-09-14T15:17:42.486Z,3.53
2022-09-14T15:20:09.742Z,2.63
2022-09-14T15:22:37.103Z,4.38
2022-09-14T15:25:05.456Z,4.22
2022-09-14T15:27:33.000Z,2.85
2022-09-14T15:29:59.769Z,4.50
2022-09-14T15:32:26.501Z,6.65
2022-09-14T15:34:53.595Z,3.97
2022-09-14T15:37:20.222Z,3.90
2022-09-14T15:39:50.115Z,3.67
2022-09-14T15:42:18.275Z,1.75
2022-09-14T15:44:45.051Z,1.92
2022-09-14T15:47:14.642Z,3.55
2022-09-14T15:49:42.445Z,3.55
2022-09-14T15:52:10.712Z,5.10
2022-09-14T15:54:38.350Z,4.18
2022-09-14T15:57:10.275Z,4.10
2022-09-14T15:59:36.965Z,4.18
2022-09-14T16:02:03.936Z,1.90
2022-09-14T16:04:36.451Z,2.97
2022-09-14T16:07:05.367Z,4.63
2022-09-14T16:09:32.049Z,3.95
2022-09-14T16:12:01.769Z,4.30
2022-09-14T16:14:28.759Z,7.07
2022-09-14T16:16:55.526Z,3.17
2022-09-14T16:19:22.292Z,5.70
2022-09-14T16:21:53.433Z,5.05
2022-09-14T16:24:22.032Z,2.92
2022-09-14T16:26:48.895Z,4.00
2022-09-14T16:29:17.803Z,4.97
2022-09-14T16:31:46.956Z,2.65
2022-09-14T16:34:26.061Z,3.10
2022-09-14T16:36:52.942Z,4.43
2022-09-14T16:39:23.162Z,2.53
2022-09-14T16:41:50.351Z,2.38
2022-09-14T16:44:20.873Z,3.75
2022-09-14T16:46:49.474Z,2.00
2022-09-14T16:49:17.459Z,3.25
2022-09-14T16:51:44.693Z,3.85
2022-09-14T16:54:16.945Z,3.72
2022-09-14T16:56:44.303Z,4.63
2022-09-14T16:59:12.134Z,3.13
2022-09-14T17:01:41.956Z,5.50
2022-09-14T17:04:13.224Z,5.88
2022-09-14T17:06:44.210Z,6.38
2022-09-14T17:09:20.707Z,4.80
2022-09-14T17:11:48.500Z,8.48
2022-09-14T17:14:20.763Z,5.25
2022-09-14T17:16:47.594Z,6.45
2022-09-14T17:19:14.682Z,7.18
2022-09-14T17:21:43.330Z,6.90
2022-09-14T17:24:11.000Z,7.18
2022-09-14T17:26:37.966Z,6.93
2022-09-14T17:29:05.436Z,7.50
2022-09-14T17:31:35.650Z,6.55
2022-09-14T17:34:04.300Z,5.85
2022-09-14T17:36:31.830Z,9.80
2022-09-14T17:39:01.825Z,4.85
2022-09-14T17:41:31.531Z,6.88
2022-09-14T17:44:00.679Z,4.68
2022-09-14T17:46:28.401Z,5.10
2022-09-14T17:48:58.251Z,5.03
2022-09-14T17:51:27.311Z,4.68
2022-09-14T17:53:56.040Z,6.22
2022-09-14T17:56:25.143Z,6.63
2022-09-14T17:58:59.942Z,8.90
2022-09-14T18:01:26.714Z,9.88
2022-09-14T18:03:55.994Z,13.65
2022-09-14T18:06:24.173Z,6.00
2022-09-14T18:08:55.970Z,7.22
2022-09-14T18:11:23.123Z,9.70
2022-09-14T18:13:50.750Z,7.57
2022-09-14T18:16:19.737Z,8.23
2022-09-14T18:18:46.942Z,6.90
2022-09-14T18:21:15.389Z,6.00
2022-09-14T18:23:42.260Z,8.25
2022-09-14T18:26:08.903Z,4.32
2022-09-14T18:28:36.587Z,5.45
2022-09-14T18:31:09.923Z,4.60
2022-09-14T18:33:37.292Z,5.47
2022-09-14T18:36:05.845Z,3.63
2022-09-14T18:38:32.955Z,4.97
2022-09-14T18:41:04.901Z,3.88
2022-09-14T18:43:31.734Z,2.72
2022-09-14T18:45:58.646Z,2.83
2022-09-14T18:48:25.347Z,3.20
2022-09-14T18:50:51.998Z,2.38
2022-09-14T18:53:19.602Z,2.45
2022-09-14T18:55:46.255Z,2.42
2022-09-14T18:58:12.918Z,1.88
2022-09-14T19:00:45.534Z,3.63
2022-09-14T19:05:41.317Z,5.30
2022-09-14T19:08:10.012Z,4.63
2022-09-14T19:10:37.927Z,5.60
2022-09-14T19:13:06.286Z,3.25
2022-09-14T19:15:33.681Z,3.10
2022-09-14T19:18:00.555Z,1.58
2022-09-14T19:20:43.177Z,2.75
2022-09-14T19:23:13.898Z,1.90
2022-09-14T19:25:40.786Z,4.15
2022-09-14T19:28:07.531Z,2.47
2022-09-14T19:30:36.336Z,1.92
2022-09-14T19:33:03.175Z,3.05
2022-09-14T19:35:30.539Z,2.00
2022-09-14T19:37:57.758Z,4.60
2022-09-14T19:40:24.690Z,2.58
2022-09-14T19:42:51.963Z,2.97
2022-09-14T19:45:19.040Z,3.88
2022-09-14T19:47:46.061Z,3.38
2022-09-14T19:50:12.792Z,4.57
2022-09-14T19:52:39.479Z,3.65
2022-09-14T19:55:06.560Z,3.08
2022-09-14T19:57:35.057Z,6.90
2022-09-14T20:00:01.966Z,2.45
2022-09-14T20:02:28.693Z,7.28
2022-09-14T20:04:55.626Z,7.05
2022-09-14T20:07:22.808Z,5.13
2022-09-14T20:09:49.933Z,5.30
2022-09-14T20:12:17.041Z,8.07
2022-09-14T20:14:44.145Z,5.65
2022-09-14T20:17:11.281Z,10.32
2022-09-14T20:19:39.224Z,5.57
2022-09-14T20:22:06.333Z,3.08
2022-09-14T20:24:33.433Z,3.58
2022-09-14T20:27:02.038Z,3.33
2022-09-14T20:29:30.683Z,4.43
2022-09-14T20:31:58.281Z,3.67
2022-09-14T20:34:25.480Z,12.65
2022-09-14T20:36:53.304Z,4.40
2022-09-14T20:39:21.622Z,3.83
2022-09-14T20:41:49.000Z,8.90
2022-09-14T20:44:21.917Z,6.15
2022-09-14T20:46:49.544Z,7.00
2022-09-14T20:49:18.045Z,5.28
2022-09-14T20:51:45.426Z,3.80
2022-09-14T20:54:14.325Z,5.50
2022-09-14T20:56:41.914Z,7.90
2022-09-14T20:59:10.804Z,5.30
2022-09-14T21:01:38.475Z,5.00
2022-09-14T21:04:05.660Z,9.93
2022-09-14T21:06:33.273Z,6.10
2022-09-14T21:09:00.890Z,10.38
2022-09-14T21:11:28.427Z,10.82
2022-09-14T21:13:56.712Z,5.18
2022-09-14T21:16:23.836Z,5.50
2022-09-14T21:19:01.922Z,5.75
2022-09-14T21:21:29.458Z,3.88
2022-09-14T21:23:57.381Z,3.38
2022-09-14T21:26:27.660Z,4.10
2022-09-14T21:28:56.337Z,5.35
2022-09-14T21:31:23.672Z,5.63
2022-09-14T21:33:52.423Z,6.85
2022-09-14T21:36:20.947Z,6.25
2022-09-14T21:38:51.578Z,5.90
2022-09-14T21:41:19.067Z,5.28
2022-09-14T21:43:46.184Z,4.32
2022-09-14T21:46:13.807Z,5.97
2022-09-14T21:48:41.077Z,6.90
2022-09-14T21:51:27.381Z,3.40
2022-09-14T21:53:55.833Z,4.95
2022-09-14T21:56:24.047Z,5.00
2022-09-14T21:58:54.803Z,3.97
2022-09-14T22:01:22.342Z,2.75
2022-09-14T22:03:53.096Z,4.68
2022-09-14T22:06:21.441Z,4.85
2022-09-14T22:08:49.186Z,3.00
2022-09-14T22:11:22.309Z,3.30
2022-09-14T22:13:57.352Z,3.92
2022-09-14T22:16:25.166Z,3.15
2022-09-14T22:18:53.911Z,4.63
2022-09-14T22:21:21.678Z,3.65
2022-09-14T22:23:59.321Z,5.28
2022-09-14T22:26:28.206Z,3.80
2022-09-14T22:28:55.443Z,5.10
2022-09-14T22:31:23.503Z,6.30
2022-09-14T22:33:51.430Z,5.28
2022-09-14T22:36:19.239Z,6.93
2022-09-14T22:38:46.544Z,5.57
2022-09-14T22:41:18.592Z,6.32
2022-09-14T22:43:46.447Z,4.40
2022-09-14T22:46:13.843Z,5.00
2022-09-14T22:48:41.041Z,4.97
2022-09-14T22:51:10.179Z,4.63
2022-09-14T22:53:37.704Z,4.10
2022-09-14T22:56:08.959Z,6.10
2022-09-14T22:58:36.276Z,3.60
2022-09-14T23:01:07.772Z,6.88
2022-09-14T23:03:35.223Z,4.60
2022-09-14T23:06:02.716Z,2.95
2022-09-14T23:08:30.082Z,5.13
2022-09-14T23:10:57.264Z,5.93
2022-09-14T23:13:24.468Z,4.47
2022-09-14T23:15:51.549Z,4.20
2022-09-14T23:18:18.661Z,5.43
2022-09-14T23:20:45.984Z,4.40
2022-09-14T23:23:13.113Z,3.97
2022-09-14T23:25:40.890Z,3.80
2022-09-14T23:28:08.503Z,5.82
2022-09-14T23:30:35.963Z,5.93
2022-09-14T23:33:03.114Z,6.55
2022-09-14T23:35:30.233Z,4.20
2022-09-14T23:37:57.669Z,4.43
2022-09-14T23:40:24.835Z,3.40
2022-09-14T23:42:52.038Z,5.80
2022-09-14T23:45:19.174Z,6.22
2022-09-14T23:47:46.283Z,5.65
2022-09-14T23:50:13.409Z,4.63
2022-09-14T23:52:40.668Z,5.05
2022-09-14T23:55:08.064Z,5.03
2022-09-14T23:57:36.517Z,5.25
